logo
Search for airport 
image banner adimage banner adimage banner ad
image banner ad

KMPV - Edward F Knapp State

Located in Barre/Montpelier, United States

ICAO - MPV, IATA - MPV

Data provided by Airmate  

General information

Coordinates: N44°12'13" W72°33'44"
Elevation is 1165 feet MSL.
Magnetic variation is -16° East
View others Airports in Vermont

Operational data

Special qualification required
Current time UTC:
Current local time:
Weather
TAF: KMPV 262333Z 2700/2724 VRB03KT P6SM FEW240 FM270600 14006KT P6SM BKN060 FM271000 14006KT P6SM BKN025 WS020/17040KT FM271400 14011G20KT P6SM BKN027 WS020/17040KT FM271900 14012G21KT P6SM VCSH BKN013 WS020/17045KT
View NOTAMs / SUP AIP / TFR affecting this airport [VIEW]
Communications frequencies: [VIEW]

Runways:

RWY identifierQFULength (ft)Width (ft)SurfaceLDA (ft)
0532°300175ASPH
23212°300175ASPH
17152°5000100ASPH
35332°5000100ASPH

Airport contact information

Address: Barre/Montpelier United States

Other aviation service providers

Flight schools

Vermont Flying Service, Inc.

Vermont Flying Service, Inc.

Satellite view of KMPV